Time;durP1;ratioP1;P1;durP2;ratioP2;P2;SDS_P1;SDS_P2;PMS_P1;PMS_P2;Temp;Humidity;BMP_temperature;BMP_pressure;BME280_temperature;BME280_humidity;BME280_pressure;Samples;Min_cycle;Max_cycle;Signal;HPM_P1;HPM_P2
2023/03/16 00:00:48;;;;;;;0.35;0.10;;;;;;;2.52;79.63;99387.28;5002543;28;20049;-71
2023/03/16 00:03:20;;;;;;;0.10;0.10;;;;;;;2.41;80.01;99382.66;5005671;28;20152;-71
2023/03/16 00:05:47;;;;;;;0.10;0.10;;;;;;;2.34;81.34;99373.88;5006361;28;20054;-71
2023/03/16 00:08:14;;;;;;;0.10;0.10;;;;;;;2.29;81.81;99377.25;4989151;28;20054;-72
2023/03/16 00:10:45;;;;;;;0.10;0.10;;;;;;;2.31;82.26;99372.44;5006282;28;20065;-71
2023/03/16 00:13:12;;;;;;;0.10;0.10;;;;;;;2.22;82.43;99361.16;5011787;28;20439;-71
2023/03/16 00:15:39;;;;;;;0.10;0.10;;;;;;;2.19;82.73;99364.31;5006535;28;20056;-72
2023/03/16 00:18:05;;;;;;;0.10;0.10;;;;;;;2.21;82.85;99345.22;5005906;28;20072;-72
2023/03/16 00:20:32;;;;;;;0.10;0.10;;;;;;;2.28;82.72;99362.13;5005307;28;20069;-72
2023/03/16 00:22:58;;;;;;;0.52;0.15;;;;;;;2.33;82.75;99347.94;5004402;28;20583;-72
2023/03/16 00:25:24;;;;;;;0.10;0.10;;;;;;;2.34;82.46;99345.03;4996061;28;20076;-71
2023/03/16 00:27:52;;;;;;;0.10;0.10;;;;;;;2.41;82.61;99344.88;5006943;28;20049;-71
2023/03/16 00:30:18;;;;;;;0.10;0.10;;;;;;;2.46;82.52;99360.41;5003452;28;20046;-71
2023/03/16 00:32:44;;;;;;;0.15;0.15;;;;;;;2.47;82.54;99372.84;5005435;28;20141;-71
2023/03/16 00:35:10;;;;;;;0.10;0.10;;;;;;;2.46;82.58;99357.69;5020180;28;20156;-71
2023/03/16 00:37:38;;;;;;;0.13;0.13;;;;;;;2.42;83.14;99362.75;5005844;28;20077;-69
2023/03/16 00:40:06;;;;;;;0.10;0.10;;;;;;;2.37;84.18;99368.00;4986851;28;20149;-69
2023/03/16 00:42:33;;;;;;;0.10;0.10;;;;;;;2.24;84.77;99360.94;5002970;28;20052;-69
2023/03/16 00:45:01;;;;;;;0.10;0.10;;;;;;;2.18;85.33;99364.53;5002643;28;20045;-69
2023/03/16 00:47:29;;;;;;;0.10;0.10;;;;;;;2.18;85.56;99372.63;5003283;28;20046;-69
2023/03/16 00:49:56;;;;;;;0.10;0.10;;;;;;;2.14;85.46;99361.50;5004484;28;20390;-69
2023/03/16 00:52:24;;;;;;;0.10;0.10;;;;;;;2.18;85.50;99361.84;5020785;28;20058;-69
2023/03/16 00:54:53;;;;;;;0.10;0.10;;;;;;;2.18;85.36;99356.44;5005470;28;20269;-70
2023/03/16 00:57:21;;;;;;;0.10;0.10;;;;;;;2.16;85.17;99359.41;5002704;28;20168;-69
2023/03/16 00:59:48;;;;;;;0.10;0.10;;;;;;;2.12;85.09;99361.72;4971836;28;20529;-69
2023/03/16 01:02:18;;;;;;;0.10;0.10;;;;;;;2.13;85.16;99366.06;5021722;28;20108;-69
2023/03/16 01:04:44;;;;;;;0.10;0.10;;;;;;;2.03;84.91;99356.88;5002530;28;20057;-70
2023/03/16 01:07:13;;;;;;;0.10;0.10;;;;;;;2.11;85.16;99360.09;5004646;28;20050;-70
2023/03/16 01:09:40;;;;;;;0.10;0.10;;;;;;;2.15;85.01;99368.53;5004118;28;20148;-69
2023/03/16 01:12:10;;;;;;;0.10;0.10;;;;;;;2.19;85.02;99353.53;5003885;28;20046;-69
2023/03/16 01:14:37;;;;;;;0.10;0.10;;;;;;;2.25;84.92;99359.88;4985298;28;20042;-70
2023/03/16 01:17:07;;;;;;;0.10;0.10;;;;;;;2.25;84.57;99352.59;5005029;28;20437;-69
2023/03/16 01:19:35;;;;;;;0.10;0.10;;;;;;;2.28;84.45;99350.53;5001030;28;20084;-69
2023/03/16 01:22:03;;;;;;;0.10;0.10;;;;;;;2.24;84.43;99350.16;5001069;28;20046;-70
2023/03/16 01:24:29;;;;;;;0.10;0.10;;;;;;;2.26;84.63;99358.84;5002421;28;20062;-72
2023/03/16 01:26:55;;;;;;;0.10;0.10;;;;;;;2.29;84.23;99352.97;4990807;28;20069;-72
2023/03/16 01:29:21;;;;;;;0.10;0.10;;;;;;;2.29;84.31;99365.66;5001459;28;20049;-69
2023/03/16 01:31:49;;;;;;;0.10;0.10;;;;;;;2.35;83.99;99370.13;5020019;28;20060;-70
2023/03/16 01:34:17;;;;;;;0.10;0.10;;;;;;;2.31;83.47;99368.94;5019949;28;20054;-70
2023/03/16 01:36:46;;;;;;;0.10;0.10;;;;;;;2.25;83.77;99365.28;5002584;28;20576;-70
2023/03/16 01:39:13;;;;;;;0.10;0.10;;;;;;;2.26;83.85;99370.47;4997855;28;20513;-70
2023/03/16 01:41:44;;;;;;;0.10;0.10;;;;;;;2.34;83.88;99368.47;5000726;28;20489;-68
2023/03/16 01:44:13;;;;;;;0.10;0.10;;;;;;;2.33;83.45;99361.44;5000335;28;20046;-69
2023/03/16 01:46:40;;;;;;;0.10;0.10;;;;;;;2.31;83.52;99364.34;4980322;28;20107;-69
2023/03/16 01:49:11;;;;;;;0.10;0.10;;;;;;;2.27;83.40;99363.16;4983824;28;20420;-69
2023/03/16 01:51:44;;;;;;;0.10;0.10;;;;;;;2.30;83.25;99368.09;4996738;28;20571;-70
2023/03/16 01:54:22;;;;;;;0.25;0.10;;;;;;;2.31;83.29;99360.84;5001532;28;20441;-70
2023/03/16 01:56:54;;;;;;;0.10;0.10;;;;;;;2.28;83.20;99367.50;5001399;28;20077;-69
2023/03/16 01:59:23;;;;;;;0.10;0.10;;;;;;;2.23;83.11;99360.09;5002223;28;20046;-70
2023/03/16 02:01:50;;;;;;;0.10;0.10;;;;;;;2.20;83.28;99351.69;4981685;28;20087;-70
2023/03/16 02:04:33;;;;;;;0.10;0.10;;;;;;;2.19;83.39;99358.13;4983676;28;20080;-69
2023/03/16 02:07:01;;;;;;;0.10;0.10;;;;;;;2.24;83.45;99360.94;4997551;28;20065;-70
2023/03/16 02:09:32;;;;;;;0.15;0.15;;;;;;;2.30;83.22;99356.50;4982928;28;20046;-70
2023/03/16 02:11:59;;;;;;;0.15;0.15;;;;;;;2.30;83.15;99362.72;5000355;28;20046;-69
2023/03/16 02:14:28;;;;;;;0.10;0.10;;;;;;;2.38;82.78;99364.25;4986170;28;20058;-70
2023/03/16 02:16:55;;;;;;;0.22;0.20;;;;;;;2.40;82.66;99371.06;5002043;28;20092;-70
2023/03/16 02:19:34;;;;;;;0.17;0.17;;;;;;;2.37;82.63;99363.44;5003704;28;20060;-70
2023/03/16 02:22:03;;;;;;;0.10;0.10;;;;;;;2.27;82.20;99344.28;5002024;28;20096;-70
2023/03/16 02:24:31;;;;;;;0.10;0.10;;;;;;;2.45;82.23;99366.84;4985082;28;20062;-69
2023/03/16 02:27:00;;;;;;;;;;;;;;;2.44;82.15;99357.09;4985855;28;20066;-70
2023/03/16 02:29:58;;;;;;;0.10;0.10;;;;;;;2.43;81.88;99359.00;5012125;28;20354;-69
2023/03/16 02:32:28;;;;;;;0.10;0.10;;;;;;;2.41;81.72;99352.97;4988553;28;20061;-69
2023/03/16 02:34:55;;;;;;;0.10;0.10;;;;;;;2.39;81.41;99358.63;5004153;28;20520;-69
2023/03/16 02:37:21;;;;;;;0.10;0.10;;;;;;;2.42;81.58;99362.75;5002819;28;20049;-69
2023/03/16 02:39:48;;;;;;;0.10;0.10;;;;;;;2.37;81.54;99349.94;5003348;28;20077;-69
2023/03/16 02:42:20;;;;;;;0.10;0.10;;;;;;;2.34;81.60;99352.28;5017774;28;20137;-69
2023/03/16 02:44:51;;;;;;;0.10;0.10;;;;;;;2.34;81.43;99345.03;5000500;28;20077;-70
2023/03/16 02:47:27;;;;;;;0.10;0.10;;;;;;;2.38;81.68;99343.50;5017147;28;20057;-70
2023/03/16 02:49:53;;;;;;;0.10;0.10;;;;;;;2.43;81.34;99331.19;4996855;28;20058;-69
2023/03/16 02:52:20;;;;;;;0.10;0.10;;;;;;;2.43;81.31;99341.97;4998148;28;20139;-69
2023/03/16 02:54:46;;;;;;;0.10;0.10;;;;;;;2.41;81.11;99339.50;5018587;28;20058;-69
2023/03/16 02:57:12;;;;;;;0.10;0.10;;;;;;;2.45;80.84;99334.47;5013443;28;20580;-70
2023/03/16 02:59:38;;;;;;;0.10;0.10;;;;;;;2.47;80.86;99343.16;5015568;28;20085;-69
2023/03/16 03:02:05;;;;;;;0.10;0.10;;;;;;;2.44;80.88;99352.53;5004648;28;20103;-69
2023/03/16 03:04:33;;;;;;;0.10;0.10;;;;;;;2.46;80.57;99346.91;5001105;28;20048;-70
2023/03/16 03:07:03;;;;;;;0.17;0.15;;;;;;;2.49;80.64;99344.56;4983706;28;20415;-70
2023/03/16 03:09:31;;;;;;;0.10;0.10;;;;;;;2.48;80.29;99342.09;4998578;28;20121;-69
2023/03/16 03:11:58;;;;;;;0.10;0.10;;;;;;;2.50;80.25;99348.91;4999993;28;20056;-70
2023/03/16 03:14:24;;;;;;;0.10;0.10;;;;;;;2.49;80.30;99341.03;5002169;28;20049;-69
2023/03/16 03:16:51;;;;;;;0.10;0.10;;;;;;;2.55;80.35;99348.22;5001022;28;20297;-69
2023/03/16 03:19:17;;;;;;;0.00;0.00;;;;;;;2.58;80.18;99341.53;4969585;28;20592;-70
2023/03/16 03:21:45;;;;;;;0.10;0.10;;;;;;;2.62;80.27;99338.13;5001375;28;20053;-70
2023/03/16 03:24:11;;;;;;;0.10;0.10;;;;;;;2.57;79.79;99327.22;5002467;28;20061;-69
2023/03/16 03:26:37;;;;;;;0.10;0.10;;;;;;;2.65;79.86;99337.69;4998977;28;20058;-69
2023/03/16 03:29:05;;;;;;;0.10;0.10;;;;;;;2.60;79.86;99324.03;5002471;28;20135;-69
2023/03/16 03:31:33;;;;;;;;;;;;;;;2.68;79.82;99330.97;5004002;28;20524;-69
2023/03/16 03:34:05;;;;;;;0.10;0.10;;;;;;;2.68;79.58;99331.81;4984508;28;19926;-70
2023/03/16 03:36:32;;;;;;;0.10;0.10;;;;;;;2.60;79.25;99315.94;5001173;28;20050;-70
2023/03/16 03:39:03;;;;;;;0.20;0.10;;;;;;;2.63;79.33;99314.66;5002494;28;20046;-69
2023/03/16 03:41:31;;;;;;;0.10;0.10;;;;;;;2.66;79.21;99322.28;4988549;28;20072;-70
2023/03/16 03:43:59;;;;;;;0.17;0.17;;;;;;;2.67;79.47;99322.06;4986307;28;20050;-69
2023/03/16 03:46:25;;;;;;;0.10;0.10;;;;;;;2.60;80.09;99317.84;5003660;28;20556;-70
2023/03/16 03:48:52;;;;;;;0.10;0.10;;;;;;;2.60;80.05;99315.94;4986969;28;20058;-70
2023/03/16 03:51:18;;;;;;;0.10;0.10;;;;;;;2.55;80.54;99318.53;5005843;28;20077;-70
2023/03/16 03:53:48;;;;;;;0.10;0.10;;;;;;;2.59;80.69;99322.41;5004818;28;20050;-70
2023/03/16 03:56:35;;;;;;;0.10;0.10;;;;;;;2.54;80.85;99320.38;5003663;28;20045;-70
2023/03/16 03:59:01;;;;;;;;;;;;;;;2.53;80.42;99328.72;5004542;28;20652;-69
2023/03/16 04:01:52;;;;;;;0.10;0.10;;;;;;;2.39;80.54;99331.66;5005853;28;20432;-70
2023/03/16 04:04:20;;;;;;;0.10;0.10;;;;;;;2.37;80.51;99322.13;5007568;28;20046;-69
2023/03/16 04:06:46;;;;;;;0.10;0.10;;;;;;;2.33;81.04;99332.56;5006322;28;20050;-70
2023/03/16 04:09:13;;;;;;;0.10;0.10;;;;;;;2.31;80.97;99337.38;4988591;28;20450;-69
2023/03/16 04:11:40;;;;;;;0.10;0.10;;;;;;;2.21;80.94;99334.44;5004783;28;20100;-70
2023/03/16 04:14:07;;;;;;;0.10;0.10;;;;;;;2.13;81.38;99330.19;4990556;28;20077;-70
2023/03/16 04:16:33;;;;;;;0.10;0.10;;;;;;;2.15;81.40;99332.63;4999166;28;20058;-70
2023/03/16 04:19:00;;;;;;;0.10;0.10;;;;;;;2.09;81.53;99347.88;5004707;28;20584;-70
2023/03/16 04:21:27;;;;;;;0.10;0.10;;;;;;;2.01;81.76;99327.44;4995641;28;20049;-69
2023/03/16 04:23:53;;;;;;;0.20;0.20;;;;;;;2.05;82.15;99325.94;5005556;28;20477;-69
2023/03/16 04:26:24;;;;;;;0.10;0.10;;;;;;;2.10;82.09;99344.13;5001469;28;20051;-69
2023/03/16 04:28:53;;;;;;;0.10;0.10;;;;;;;2.12;82.15;99342.03;5001845;28;20521;-69
2023/03/16 04:31:20;;;;;;;0.17;0.17;;;;;;;2.12;81.96;99332.06;5019784;28;20057;-68
2023/03/16 04:33:47;;;;;;;0.13;0.13;;;;;;;2.15;82.03;99327.25;5003765;28;20042;-68
2023/03/16 04:36:13;;;;;;;0.10;0.10;;;;;;;2.16;81.83;99324.31;5003559;28;20221;-69
2023/03/16 04:38:40;;;;;;;0.10;0.10;;;;;;;2.12;81.79;99326.66;4987731;28;20084;-69
2023/03/16 04:41:10;;;;;;;0.10;0.10;;;;;;;2.13;82.04;99317.50;4988790;28;20057;-70
2023/03/16 04:43:42;;;;;;;0.10;0.10;;;;;;;2.24;82.21;99340.16;5002949;28;20136;-71
2023/03/16 04:46:17;;;;;;;0.10;0.10;;;;;;;2.32;82.19;99343.59;4979806;28;20416;-73
2023/03/16 04:48:43;;;;;;;0.32;0.10;;;;;;;2.29;81.86;99347.56;5008236;28;20489;-71
2023/03/16 04:51:10;;;;;;;0.10;0.10;;;;;;;2.27;81.92;99349.69;5007994;28;20046;-71
2023/03/16 04:53:40;;;;;;;0.10;0.10;;;;;;;2.23;82.08;99354.72;4988661;28;20050;-72
2023/03/16 04:56:17;;;;;;;0.10;0.10;;;;;;;2.21;82.55;99354.13;5005171;28;20045;-72
2023/03/16 04:58:43;;;;;;;0.85;0.10;;;;;;;2.13;82.89;99354.47;5007507;28;20042;-71
2023/03/16 05:01:10;;;;;;;0.10;0.10;;;;;;;2.05;83.50;99363.72;5002696;28;20370;-72
2023/03/16 05:03:38;;;;;;;0.10;0.10;;;;;;;2.01;83.93;99372.47;5002115;28;20056;-71
2023/03/16 05:06:04;;;;;;;;;;;;;;;1.95;84.04;99374.22;5000924;28;20105;-70
2023/03/16 05:08:32;;;;;;;0.10;0.10;;;;;;;1.87;84.23;99363.72;4982733;28;19925;-70
2023/03/16 05:10:58;;;;;;;0.10;0.10;;;;;;;1.84;84.79;99357.75;4990390;28;20050;-71
2023/03/16 05:13:28;;;;;;;0.10;0.10;;;;;;;1.97;84.92;99372.09;4972273;28;20482;-71
2023/03/16 05:15:58;;;;;;;0.10;0.10;;;;;;;1.95;84.67;99375.03;4998342;28;20109;-71
2023/03/16 05:18:32;;;;;;;0.10;0.10;;;;;;;1.92;84.69;99378.19;4986100;28;20077;-71
2023/03/16 05:20:59;;;;;;;0.10;0.10;;;;;;;1.83;85.19;99383.06;5002521;28;20401;-72
2023/03/16 05:23:33;;;;;;;0.10;0.10;;;;;;;1.74;85.33;99378.22;5002941;28;20135;-71
2023/03/16 05:26:02;;;;;;;0.10;0.10;;;;;;;1.81;85.55;99392.44;5020337;28;20096;-71
2023/03/16 05:28:31;;;;;;;0.10;0.10;;;;;;;1.88;85.52;99384.28;5001004;28;20165;-70
2023/03/16 05:31:02;;;;;;;0.10;0.10;;;;;;;1.95;85.47;99379.59;5000298;28;20049;-71
2023/03/16 05:33:34;;;;;;;0.10;0.10;;;;;;;1.95;84.99;99379.59;4999226;28;20101;-70
2023/03/16 05:36:07;;;;;;;0.25;0.20;;;;;;;1.96;84.60;99374.00;4998587;28;20041;-70
2023/03/16 05:38:38;;;;;;;0.10;0.10;;;;;;;2.03;84.68;99363.13;4692742;28;10000904;-70
2023/03/16 05:41:06;;;;;;;0.20;0.20;;;;;;;2.08;84.52;99347.06;4980653;28;20267;-70
2023/03/16 05:43:58;;;;;;;0.10;0.10;;;;;;;2.29;84.31;99357.56;4973734;28;20076;-70
2023/03/16 05:46:30;;;;;;;0.10;0.10;;;;;;;2.39;83.85;99357.78;4988579;28;20055;-71
2023/03/16 05:48:57;;;;;;;0.10;0.10;;;;;;;2.39;83.61;99361.34;4975700;28;20500;-71
2023/03/16 05:51:25;;;;;;;0.10;0.10;;;;;;;2.34;83.22;99366.63;4999173;28;20800;-71
2023/03/16 05:53:55;;;;;;;0.10;0.10;;;;;;;2.27;83.21;99360.47;4998498;28;20111;-72
2023/03/16 05:56:28;;;;;;;0.10;0.10;;;;;;;2.30;83.78;99361.91;4967149;28;20042;-71
2023/03/16 05:58:55;;;;;;;0.10;0.10;;;;;;;2.44;83.74;99373.31;5015333;28;20065;-71
2023/03/16 06:01:23;;;;;;;0.10;0.10;;;;;;;2.52;83.64;99375.69;4961076;28;20064;-69
2023/03/16 06:03:53;;;;;;;0.10;0.10;;;;;;;2.54;83.24;99381.66;4999477;28;20472;-69
2023/03/16 06:06:25;;;;;;;0.10;0.10;;;;;;;2.57;83.38;99381.19;5012194;28;20041;-70
2023/03/16 06:09:00;;;;;;;0.10;0.10;;;;;;;2.57;83.61;99381.19;5001590;28;20050;-69
2023/03/16 06:11:28;;;;;;;0.10;0.10;;;;;;;2.59;83.58;99381.78;4971987;28;20100;-71
2023/03/16 06:13:56;;;;;;;0.32;0.17;;;;;;;2.57;83.59;99377.66;4999802;28;20104;-69
2023/03/16 06:16:23;;;;;;;;;;;;;;;2.48;83.43;99380.72;4974950;28;20052;-70
2023/03/16 06:18:50;;;;;;;0.10;0.10;;;;;;;2.37;83.21;99368.00;4998731;28;19929;-69
2023/03/16 06:21:16;;;;;;;0.10;0.10;;;;;;;2.17;83.20;99357.50;4998588;28;20492;-69
2023/03/16 06:23:45;;;;;;;0.10;0.10;;;;;;;2.25;83.52;99392.25;4981668;28;20304;-69
2023/03/16 06:26:11;;;;;;;0.10;0.10;;;;;;;2.24;83.98;99396.00;4999404;28;20061;-69
2023/03/16 06:28:40;;;;;;;0.10;0.10;;;;;;;2.16;84.34;99397.16;5018062;28;20046;-69
2023/03/16 06:31:06;;;;;;;0.10;0.10;;;;;;;2.20;84.76;99394.84;5003350;28;20042;-69
2023/03/16 06:33:34;;;;;;;0.10;0.10;;;;;;;2.25;85.04;99398.47;5014004;28;20057;-69
2023/03/16 06:36:02;;;;;;;0.20;0.20;;;;;;;2.22;84.90;99407.03;5014673;28;20054;-69
2023/03/16 06:38:42;;;;;;;0.10;0.10;;;;;;;2.20;85.25;99411.84;5016349;28;20052;-69
2023/03/16 06:41:29;;;;;;;0.10;0.10;;;;;;;2.18;85.27;99410.41;5016531;28;20472;-69
2023/03/16 06:43:56;;;;;;;0.10;0.10;;;;;;;2.16;85.59;99412.50;5001661;28;20148;-69
2023/03/16 06:46:23;;;;;;;0.10;0.10;;;;;;;2.18;86.08;99407.72;5003297;28;20509;-69
2023/03/16 06:48:50;;;;;;;0.10;0.10;;;;;;;2.24;86.07;99415.72;4985290;28;20056;-69
2023/03/16 06:51:17;;;;;;;0.10;0.10;;;;;;;2.32;86.01;99401.06;5005995;28;20045;-69
2023/03/16 06:53:45;;;;;;;0.10;0.10;;;;;;;2.36;85.81;99398.75;5004756;28;20403;-69
2023/03/16 06:56:11;;;;;;;0.10;0.10;;;;;;;2.45;85.67;99399.22;5005736;28;20173;-69
2023/03/16 06:58:41;;;;;;;0.10;0.10;;;;;;;2.52;85.52;99403.47;5005382;28;20124;-69
2023/03/16 07:01:07;;;;;;;0.17;0.17;;;;;;;2.59;85.75;99397.16;4985809;28;20076;-69
2023/03/16 07:03:34;;;;;;;0.15;0.15;;;;;;;2.69;85.34;99400.94;4987371;28;20046;-69
2023/03/16 07:06:14;;;;;;;0.10;0.10;;;;;;;2.74;84.83;99394.84;4986222;28;20053;-69
2023/03/16 07:08:41;;;;;;;0.10;0.10;;;;;;;2.84;84.53;99391.56;5022793;28;20473;-69
2023/03/16 07:11:08;;;;;;;0.10;0.10;;;;;;;2.96;84.53;99389.66;5006292;28;20070;-69
2023/03/16 07:13:35;;;;;;;0.20;0.20;;;;;;;3.00;83.91;99387.31;5006020;28;20049;-69
2023/03/16 07:16:03;;;;;;;0.20;0.20;;;;;;;3.04;83.57;99398.50;5006517;28;20046;-72
2023/03/16 07:18:30;;;;;;;0.10;0.10;;;;;;;3.08;83.41;99391.56;5007948;28;20054;-69
2023/03/16 07:20:57;;;;;;;0.10;0.10;;;;;;;3.10;83.13;99392.13;5007832;28;20061;-69
2023/03/16 07:23:25;;;;;;;0.10;0.10;;;;;;;3.19;82.76;99398.00;5007901;28;20046;-69
2023/03/16 07:25:56;;;;;;;0.10;0.10;;;;;;;3.15;82.76;99402.25;5009914;28;20133;-69
2023/03/16 07:28:22;;;;;;;0.10;0.10;;;;;;;3.14;82.54;99404.16;5008689;28;20135;-69
2023/03/16 07:30:50;;;;;;;0.10;0.10;;;;;;;3.09;82.56;99402.13;4992017;28;20046;-69
2023/03/16 07:33:19;;;;;;;0.10;0.10;;;;;;;3.04;82.59;99402.00;5009628;28;20045;-70
2023/03/16 07:35:45;;;;;;;0.10;0.10;;;;;;;3.07;82.56;99400.72;4993239;28;20496;-69
2023/03/16 07:38:12;;;;;;;0.10;0.10;;;;;;;3.11;82.67;99397.31;5005639;28;20133;-69
2023/03/16 07:40:40;;;;;;;0.20;0.20;;;;;;;3.17;82.48;99394.72;5023157;28;20042;-69
2023/03/16 07:43:13;;;;;;;0.10;0.10;;;;;;;3.21;82.29;99391.31;5022718;28;20049;-69
2023/03/16 07:45:48;;;;;;;0.10;0.10;;;;;;;3.17;82.27;99378.50;5009229;28;20050;-69
2023/03/16 07:48:18;;;;;;;0.10;0.10;;;;;;;3.26;82.10;99387.91;5008500;28;20527;-69
2023/03/16 07:50:50;;;;;;;0.10;0.10;;;;;;;3.30;82.15;99391.78;5000393;28;20075;-69
2023/03/16 07:53:16;;;;;;;0.20;0.20;;;;;;;3.43;82.60;99393.41;4988613;28;20111;-70
2023/03/16 07:55:45;;;;;;;0.10;0.10;;;;;;;3.49;82.26;99391.63;5006314;28;20046;-69
2023/03/16 07:58:12;;;;;;;0.20;0.20;;;;;;;3.50;81.97;99387.88;5004238;28;20046;-70
2023/03/16 08:00:42;;;;;;;0.20;0.20;;;;;;;3.37;81.82;99362.75;5009400;28;20046;-70
2023/03/16 08:03:08;;;;;;;0.20;0.20;;;;;;;3.51;81.43;99384.94;5007569;28;20058;-69
2023/03/16 08:05:36;;;;;;;0.20;0.20;;;;;;;3.54;81.12;99387.16;5008724;28;20054;-71
2023/03/16 08:08:08;;;;;;;0.20;0.20;;;;;;;3.55;80.75;99379.88;4992266;28;20058;-71
2023/03/16 08:10:36;;;;;;;0.10;0.10;;;;;;;3.60;80.68;99371.06;4992940;28;20049;-69
2023/03/16 08:13:10;;;;;;;0.20;0.20;;;;;;;3.63;80.36;99376.78;4990145;28;20053;-70
2023/03/16 08:15:41;;;;;;;0.17;0.17;;;;;;;3.63;80.09;99382.19;4976426;28;20621;-69
2023/03/16 08:18:16;;;;;;;0.20;0.20;;;;;;;3.62;80.24;99383.25;5007234;28;20049;-70
2023/03/16 08:20:44;;;;;;;0.10;0.10;;;;;;;3.63;80.09;99382.19;5025748;28;20108;-71
2023/03/16 08:23:12;;;;;;;0.20;0.20;;;;;;;3.61;80.21;99389.72;5007963;28;20058;-71
2023/03/16 08:25:40;;;;;;;0.20;0.20;;;;;;;3.58;80.26;99394.78;5007282;28;20593;-71
2023/03/16 08:28:14;;;;;;;0.20;0.20;;;;;;;3.52;80.24;99394.69;5019958;28;20065;-71
2023/03/16 08:30:45;;;;;;;0.15;0.15;;;;;;;3.53;80.04;99396.31;5007760;28;20050;-72
2023/03/16 08:33:47;;;;;;;0.10;0.10;;;;;;;3.47;80.41;99393.75;5005639;28;20058;-71
2023/03/16 08:36:18;;;;;;;0.32;0.20;;;;;;;3.40;81.35;99394.72;5019299;28;20099;-71
2023/03/16 08:38:48;;;;;;;0.17;0.17;;;;;;;3.49;81.78;99395.16;4989588;28;20050;-71
2023/03/16 08:41:16;;;;;;;0.10;0.10;;;;;;;3.62;81.80;99398.69;5005057;28;20086;-72
2023/03/16 08:43:45;;;;;;;0.20;0.20;;;;;;;3.64;81.92;99397.34;4992293;28;20473;-71
2023/03/16 08:46:14;;;;;;;0.10;0.10;;;;;;;3.64;81.66;99405.47;5008341;28;20046;-69
2023/03/16 08:48:48;;;;;;;0.10;0.10;;;;;;;3.64;81.36;99394.66;4994473;28;20091;-71
2023/03/16 08:51:17;;;;;;;0.20;0.20;;;;;;;3.64;81.20;99400.06;5007084;28;20054;-71
2023/03/16 08:53:44;;;;;;;0.10;0.10;;;;;;;3.63;81.28;99403.03;5007267;28;20046;-71
2023/03/16 08:56:11;;;;;;;0.20;0.20;;;;;;;3.63;81.38;99403.03;5008841;28;20058;-71
2023/03/16 08:58:38;;;;;;;0.20;0.20;;;;;;;3.62;81.08;99404.09;5007131;28;20516;-71
2023/03/16 09:01:05;;;;;;;0.10;0.10;;;;;;;3.62;81.50;99394.06;5008054;28;20171;-71
2023/03/16 09:03:31;;;;;;;0.17;0.17;;;;;;;3.68;81.29;99393.13;5009135;28;20702;-71
2023/03/16 09:06:01;;;;;;;0.10;0.10;;;;;;;3.53;80.97;99388.22;5009194;28;20081;-69
2023/03/16 09:08:29;;;;;;;0.20;0.20;;;;;;;3.49;81.33;99388.94;5007854;28;20503;-69
2023/03/16 09:10:59;;;;;;;0.10;0.10;;;;;;;3.56;81.59;99397.75;5007939;28;20060;-69
2023/03/16 09:13:25;;;;;;;0.10;0.10;;;;;;;3.42;81.60;99383.66;5006234;28;20058;-69
2023/03/16 09:15:51;;;;;;;0.10;0.10;;;;;;;3.51;81.57;99398.44;5005666;28;20076;-71
2023/03/16 09:18:18;;;;;;;0.20;0.20;;;;;;;3.53;81.44;99400.94;4989760;28;20050;-71
2023/03/16 09:20:46;;;;;;;0.10;0.10;;;;;;;3.53;81.32;99401.72;5005019;28;20401;-71
2023/03/16 09:23:12;;;;;;;0.10;0.10;;;;;;;3.54;81.18;99405.28;5008039;28;20297;-69
2023/03/16 09:25:40;;;;;;;0.10;0.10;;;;;;;3.51;81.06;99398.44;5008039;28;20054;-69
2023/03/16 09:28:07;;;;;;;;;;;;;;;3.58;81.24;99398.31;5006465;28;20041;-69
2023/03/16 09:30:33;;;;;;;0.20;0.20;;;;;;;3.60;80.99;99398.91;5008667;28;19993;-69
2023/03/16 09:32:59;;;;;;;0.10;0.10;;;;;;;3.64;81.03;99405.47;5007009;28;20038;-69
2023/03/16 09:35:26;;;;;;;0.10;0.10;;;;;;;3.63;80.93;99394.91;5005896;28;20153;-69
2023/03/16 09:37:52;;;;;;;0.10;0.10;;;;;;;3.65;81.00;99398.19;5003821;28;20638;-70
2023/03/16 09:40:23;;;;;;;0.10;0.10;;;;;;;3.60;80.90;99390.78;5006772;28;20125;-69
2023/03/16 09:43:02;;;;;;;0.25;0.15;;;;;;;3.64;81.09;99402.78;5002328;28;20050;-69
2023/03/16 09:45:37;;;;;;;0.20;0.20;;;;;;;3.62;80.88;99396.78;5005702;28;20050;-69
2023/03/16 09:48:05;;;;;;;0.10;0.10;;;;;;;3.55;81.00;99386.09;5006463;28;20141;-69
2023/03/16 09:50:37;;;;;;;0.20;0.20;;;;;;;3.71;80.94;99393.72;5006643;28;20168;-70
2023/03/16 09:53:14;;;;;;;0.10;0.10;;;;;;;3.76;81.47;99391.09;5005670;28;20068;-71
2023/03/16 09:55:46;;;;;;;0.20;0.20;;;;;;;3.98;81.44;99393.97;5004612;28;20050;-69
2023/03/16 09:58:17;;;;;;;0.20;0.20;;;;;;;4.05;81.12;99383.00;5005949;28;20408;-69
2023/03/16 10:00:51;;;;;;;0.20;0.20;;;;;;;3.99;81.42;99378.56;5005655;28;20038;-69
2023/03/16 10:03:31;;;;;;;0.20;0.20;;;;;;;3.96;83.14;99388.00;5009527;28;20038;-69
2023/03/16 10:06:01;;;;;;;0.20;0.20;;;;;;;4.06;84.57;99381.94;5006970;28;20061;-70
2023/03/16 10:08:31;;;;;;;0.20;0.20;;;;;;;4.23;84.68;99387.41;5007333;28;20188;-71
2023/03/16 10:11:21;;;;;;;0.10;0.10;;;;;;;4.32;84.44;99391.34;5003365;28;20054;-71
2023/03/16 10:13:53;;;;;;;0.20;0.20;;;;;;;4.27;84.14;99391.25;5008736;28;20421;-71
2023/03/16 10:16:24;;;;;;;0.17;0.17;;;;;;;4.28;84.71;99395.63;5009130;28;20132;-71
2023/03/16 10:19:00;;;;;;;0.10;0.10;;;;;;;4.24;84.82;99397.97;5007018;28;20628;-71
2023/03/16 10:21:26;;;;;;;0.10;0.10;;;;;;;4.12;85.05;99394.50;4990728;28;20517;-71
2023/03/16 10:23:57;;;;;;;0.20;0.20;;;;;;;4.02;84.52;99410.56;5007483;28;20054;-71
2023/03/16 10:26:30;;;;;;;0.20;0.20;;;;;;;3.90;83.92;99392.47;4989464;28;20054;-71
2023/03/16 10:29:00;;;;;;;0.10;0.10;;;;;;;3.85;83.29;99407.78;5007514;28;20054;-70
2023/03/16 10:31:27;;;;;;;0.10;0.10;;;;;;;3.81;83.09;99404.72;5004213;28;20479;-71
2023/03/16 10:34:04;;;;;;;0.20;0.20;;;;;;;3.73;82.76;99388.88;5005789;28;20123;-71
2023/03/16 10:36:33;;;;;;;0.10;0.10;;;;;;;3.78;82.71;99405.22;5006809;28;20133;-72
2023/03/16 10:39:03;;;;;;;0.20;0.20;;;;;;;3.81;83.88;99408.25;5007754;28;20099;-71
2023/03/16 10:41:32;;;;;;;0.10;0.10;;;;;;;3.93;84.54;99410.91;5007166;28;20080;-71
2023/03/16 10:44:11;;;;;;;0.20;0.20;;;;;;;4.01;85.02;99403.50;4971642;28;20072;-71
2023/03/16 10:46:39;;;;;;;0.10;0.10;;;;;;;3.91;85.62;99386.00;5003847;28;20053;-70
2023/03/16 10:49:16;;;;;;;;;;;;;;;4.10;86.17;99402.88;5004622;28;20042;-71
2023/03/16 10:51:43;;;;;;;0.20;0.20;;;;;;;4.26;86.53;99406.66;5005053;28;19965;-71
2023/03/16 10:54:15;;;;;;;0.20;0.20;;;;;;;4.27;86.29;99404.81;5007243;28;20037;-69
2023/03/16 10:56:42;;;;;;;0.20;0.20;;;;;;;4.22;87.06;99404.72;5004839;28;20085;-70
2023/03/16 10:59:27;;;;;;;0.20;0.20;;;;;;;4.32;87.60;99406.78;5004624;28;20060;-71
2023/03/16 11:01:54;;;;;;;0.20;0.20;;;;;;;4.37;87.50;99409.56;5005010;28;20046;-71
2023/03/16 11:04:20;;;;;;;0.22;0.22;;;;;;;4.35;87.69;99398.16;5003700;28;20050;-71
2023/03/16 11:06:51;;;;;;;0.25;0.17;;;;;;;4.41;88.09;99405.31;5005970;28;20141;-71
2023/03/16 11:09:22;;;;;;;0.20;0.20;;;;;;;4.36;87.67;99410.63;5003596;28;20046;-71
2023/03/16 11:11:49;;;;;;;0.20;0.20;;;;;;;4.29;87.51;99409.94;5003454;28;20133;-71
2023/03/16 11:14:21;;;;;;;0.20;0.20;;;;;;;4.28;87.45;99411.84;5005920;28;20046;-71
2023/03/16 11:16:53;;;;;;;0.20;0.20;;;;;;;4.16;87.49;99392.13;5019324;28;20073;-71
2023/03/16 11:19:24;;;;;;;0.13;0.13;;;;;;;4.16;87.55;99398.38;5007014;28;20517;-71
2023/03/16 11:21:56;;;;;;;0.20;0.20;;;;;;;4.31;87.25;99416.78;5005293;28;20730;-71
2023/03/16 11:24:29;;;;;;;0.20;0.20;;;;;;;4.43;87.36;99410.50;4988613;28;20058;-71
2023/03/16 11:26:58;;;;;;;0.10;0.10;;;;;;;4.57;86.55;99402.88;5007214;28;20056;-71
2023/03/16 11:29:31;;;;;;;0.20;0.20;;;;;;;4.50;85.91;99401.16;5006608;28;20069;-71
2023/03/16 11:32:02;;;;;;;0.20;0.20;;;;;;;4.61;85.46;99412.16;5007039;28;20061;-71
2023/03/16 11:34:31;;;;;;;0.20;0.20;;;;;;;4.59;84.63;99415.09;5006484;28;20058;-71
2023/03/16 11:37:04;;;;;;;0.20;0.20;;;;;;;4.53;84.20;99421.50;5004121;28;20054;-71
2023/03/16 11:39:39;;;;;;;0.17;0.17;;;;;;;4.42;83.20;99417.78;5005274;28;20049;-71
2023/03/16 11:42:28;;;;;;;0.20;0.20;;;;;;;4.38;83.74;99424.75;5006149;28;20597;-70
2023/03/16 11:45:05;;;;;;;0.28;0.28;;;;;;;4.46;84.03;99426.25;5003653;28;20054;-70
2023/03/16 11:48:03;;;;;;;0.20;0.20;;;;;;;4.42;84.70;99423.19;5007128;28;20053;-70
2023/03/16 11:50:36;;;;;;;0.10;0.10;;;;;;;4.29;85.67;99423.47;5002820;28;20045;-71
2023/03/16 11:53:10;;;;;;;0.20;0.20;;;;;;;4.17;86.04;99426.25;5003228;28;20050;-71
2023/03/16 11:55:44;;;;;;;0.17;0.17;;;;;;;4.11;86.08;99436.16;5007350;28;20053;-71